createdAt,value
2018-03-02T00:01:34.654Z,97.10
2018-03-02T00:04:02.290Z,97.00
2018-03-02T00:06:29.930Z,97.30
2018-03-02T00:08:58.310Z,97.10
2018-03-02T00:11:26.709Z,97.00
2018-03-02T00:13:54.326Z,97.00
2018-03-02T00:16:22.021Z,97.00
2018-03-02T00:18:49.600Z,97.00
2018-03-02T00:21:17.235Z,97.10
2018-03-02T00:23:44.885Z,97.30
2018-03-02T00:26:12.539Z,97.30
2018-03-02T00:28:40.849Z,97.20
2018-03-02T00:31:08.510Z,97.30
2018-03-02T00:33:36.920Z,97.20
2018-03-02T00:36:05.339Z,97.20
2018-03-02T00:38:33.012Z,97.20
2018-03-02T00:41:00.621Z,97.20
2018-03-02T00:43:28.997Z,97.40
2018-03-02T00:45:56.657Z,97.30
2018-03-02T00:48:24.298Z,97.30
2018-03-02T00:50:51.958Z,97.60
2018-03-02T00:53:19.593Z,97.50
2018-03-02T00:55:47.968Z,97.70
2018-03-02T00:58:16.435Z,97.50
2018-03-02T01:00:44.862Z,97.90
2018-03-02T01:03:12.473Z,97.60
2018-03-02T01:05:40.127Z,97.50
2018-03-02T01:08:07.773Z,97.50
2018-03-02T01:10:35.376Z,97.80
2018-03-02T01:13:03.006Z,98.00
2018-03-02T01:15:30.632Z,97.60
2018-03-02T01:17:59.056Z,98.10
2018-03-02T01:20:26.671Z,98.00
2018-03-02T01:22:55.089Z,97.90
2018-03-02T01:25:22.717Z,97.90
2018-03-02T01:27:51.132Z,98.40
2018-03-02T01:30:18.773Z,98.10
2018-03-02T01:32:47.150Z,98.20
2018-03-02T01:35:14.810Z,98.20
2018-03-02T01:37:42.447Z,98.30
2018-03-02T01:40:10.219Z,98.40
2018-03-02T01:42:37.880Z,98.50
2018-03-02T01:45:05.744Z,98.40
2018-03-02T01:47:33.402Z,98.50
2018-03-02T01:50:01.028Z,98.70
2018-03-02T01:52:28.684Z,98.60
2018-03-02T01:54:56.304Z,98.50
2018-03-02T01:57:23.940Z,98.70
2018-03-02T01:59:51.604Z,98.90
2018-03-02T02:02:20.025Z,98.70
2018-03-02T02:04:47.657Z,98.70
2018-03-02T02:07:16.070Z,98.80
2018-03-02T02:09:43.673Z,98.80
2018-03-02T02:12:11.321Z,98.80
2018-03-02T02:14:38.981Z,99.10
2018-03-02T02:17:06.641Z,99.10
2018-03-02T02:19:34.300Z,99.00
2018-03-02T02:22:01.948Z,99.00
2018-03-02T02:24:30.353Z,99.40
2018-03-02T02:26:57.984Z,99.40
2018-03-02T02:29:26.418Z,99.70
2018-03-02T02:31:54.032Z,99.40
2018-03-02T02:34:21.692Z,99.50
2018-03-02T02:36:49.347Z,99.30
2018-03-02T02:39:17.273Z,99.20
2018-03-02T02:41:45.797Z,99.20
2018-03-02T02:44:13.426Z,99.20
2018-03-02T02:46:41.118Z,99.30
2018-03-02T02:49:08.758Z,99.50
2018-03-02T02:51:36.419Z,99.40
2018-03-02T02:54:04.078Z,99.60
2018-03-02T02:56:31.701Z,99.80
2018-03-02T02:58:59.346Z,99.50
2018-03-02T03:01:27.287Z,99.50
2018-03-02T03:03:54.950Z,99.30
2018-03-02T03:06:22.575Z,99.40
2018-03-02T03:08:51.739Z,99.30
2018-03-02T03:11:19.345Z,99.40
2018-03-02T03:13:46.996Z,99.40
2018-03-02T03:16:14.600Z,99.50
2018-03-02T03:18:43.013Z,99.40
2018-03-02T03:21:10.666Z,99.40
2018-03-02T03:23:38.305Z,99.40
2018-03-02T03:26:05.960Z,99.40
2018-03-02T03:28:33.611Z,99.40
2018-03-02T03:31:01.225Z,99.40
2018-03-02T03:33:29.659Z,99.30
2018-03-02T03:35:58.480Z,99.30
2018-03-02T03:38:26.192Z,99.70
2018-03-02T03:40:53.801Z,99.40
2018-03-02T03:43:21.389Z,99.50
2018-03-02T03:45:49.025Z,99.40
2018-03-02T03:48:16.657Z,99.40
2018-03-02T03:50:44.315Z,99.40
2018-03-02T03:53:12.692Z,99.50
2018-03-02T03:55:40.352Z,99.60
2018-03-02T03:58:08.014Z,99.70
2018-03-02T04:00:36.422Z,99.80
2018-03-02T04:03:04.123Z,99.80
2018-03-02T04:05:32.719Z,99.70
2018-03-02T04:08:00.336Z,99.80
2018-03-02T04:10:28.038Z,99.90
2018-03-02T04:12:55.705Z,99.90
2018-03-02T04:15:23.376Z,99.90
2018-03-02T04:17:51.030Z,99.80
2018-03-02T04:20:18.668Z,99.80
2018-03-02T04:22:47.128Z,99.90
2018-03-02T04:25:14.780Z,99.90
2018-03-02T04:27:42.453Z,99.90
2018-03-02T04:30:10.896Z,99.90
2018-03-02T04:32:38.553Z,99.90
2018-03-02T04:35:06.611Z,99.90
2018-03-02T04:37:34.230Z,99.90
2018-03-02T04:40:01.915Z,99.90
2018-03-02T04:42:29.562Z,99.90
2018-03-02T04:44:57.206Z,99.90
2018-03-02T04:47:24.849Z,99.90
2018-03-02T04:49:52.514Z,99.90
2018-03-02T04:52:20.916Z,99.90
2018-03-02T04:54:48.568Z,99.90
2018-03-02T04:57:16.942Z,99.90
2018-03-02T04:59:45.471Z,99.90
2018-03-02T05:02:13.112Z,99.90
2018-03-02T05:04:40.745Z,99.90
2018-03-02T05:07:09.127Z,99.90
2018-03-02T05:09:38.978Z,99.90
2018-03-02T05:12:06.632Z,99.90
2018-03-02T05:14:35.017Z,99.90
2018-03-02T05:17:02.730Z,99.90
2018-03-02T05:19:30.380Z,99.90
2018-03-02T05:21:58.028Z,99.90
2018-03-02T05:24:25.669Z,99.90
2018-03-02T05:26:54.076Z,99.90
2018-03-02T05:29:21.677Z,99.90
2018-03-02T05:31:49.464Z,99.90
2018-03-02T05:34:17.433Z,99.90
2018-03-02T05:36:45.097Z,99.90
2018-03-02T05:39:12.757Z,99.90
2018-03-02T05:41:40.381Z,99.90
2018-03-02T05:44:08.761Z,99.90
2018-03-02T05:46:36.427Z,99.90
2018-03-02T05:49:04.088Z,99.90
2018-03-02T05:51:32.499Z,99.90
2018-03-02T05:54:00.127Z,99.90
2018-03-02T05:56:28.542Z,99.90
2018-03-02T05:58:56.194Z,99.90
2018-03-02T06:01:24.643Z,99.90
2018-03-02T06:03:52.273Z,99.90
2018-03-02T06:06:20.215Z,99.90
2018-03-02T06:08:48.629Z,99.90
2018-03-02T06:11:16.278Z,99.90
2018-03-02T06:13:43.986Z,99.90
2018-03-02T06:16:11.649Z,99.90
2018-03-02T06:18:40.814Z,99.90
2018-03-02T06:21:08.503Z,99.90
2018-03-02T06:23:36.133Z,99.90
2018-03-02T06:26:04.517Z,99.90
2018-03-02T06:28:33.002Z,99.90
2018-03-02T06:31:01.435Z,99.90
2018-03-02T06:33:29.088Z,99.90
2018-03-02T06:35:57.183Z,99.90
2018-03-02T06:38:24.856Z,99.90
2018-03-02T06:40:52.895Z,99.90
2018-03-02T06:43:20.630Z,99.90
2018-03-02T06:45:49.860Z,99.90
2018-03-02T06:48:17.525Z,99.90
2018-03-02T06:50:45.148Z,99.90
2018-03-02T06:53:12.896Z,99.90
2018-03-02T06:55:41.324Z,99.90
2018-03-02T06:58:09.758Z,99.90
2018-03-02T07:00:37.850Z,99.90
2018-03-02T07:03:05.510Z,99.90
2018-03-02T07:05:33.178Z,99.80
2018-03-02T07:08:00.800Z,99.60
2018-03-02T07:10:28.437Z,99.50
2018-03-02T07:12:57.020Z,99.30
2018-03-02T07:15:26.112Z,99.30
2018-03-02T07:17:54.556Z,98.80
2018-03-02T07:20:22.237Z,98.80
2018-03-02T07:22:49.878Z,98.90
2018-03-02T07:25:17.568Z,98.80
2018-03-02T07:27:45.196Z,98.80
2018-03-02T07:30:13.647Z,98.60
2018-03-02T07:32:41.336Z,98.60
2018-03-02T07:35:08.964Z,98.10
2018-03-02T07:37:36.859Z,98.60
2018-03-02T07:40:04.522Z,98.20
2018-03-02T07:42:32.156Z,97.90
2018-03-02T07:44:59.814Z,98.00
2018-03-02T07:47:27.472Z,97.80
2018-03-02T07:49:55.301Z,97.80
2018-03-02T07:52:23.277Z,97.80
2018-03-02T07:54:51.712Z,97.40
2018-03-02T07:57:19.909Z,97.20
2018-03-02T07:59:47.550Z,97.30
2018-03-02T08:02:15.281Z,97.00
2018-03-02T08:04:43.739Z,96.60
2018-03-02T08:07:12.159Z,96.60
2018-03-02T08:09:41.248Z,96.60
2018-03-02T08:12:08.907Z,96.60
2018-03-02T08:14:37.298Z,96.10
2018-03-02T08:17:05.281Z,96.10
2018-03-02T08:19:33.839Z,94.90
2018-03-02T08:22:02.459Z,94.90
2018-03-02T08:24:30.925Z,94.90
2018-03-02T08:26:58.572Z,94.90
2018-03-02T08:29:27.099Z,94.70
2018-03-02T08:31:55.498Z,94.50
2018-03-02T08:34:23.126Z,94.50
2018-03-02T08:36:52.106Z,93.50
2018-03-02T08:39:19.765Z,93.20
2018-03-02T08:41:47.435Z,94.00
2018-03-02T08:44:15.622Z,93.60
2018-03-02T08:46:43.376Z,93.00
2018-03-02T08:49:11.175Z,93.40
2018-03-02T08:51:38.901Z,92.90
2018-03-02T08:54:06.624Z,92.30
2018-03-02T08:56:34.302Z,91.90
2018-03-02T08:59:02.749Z,92.30
2018-03-02T09:01:30.404Z,92.30
2018-03-02T09:03:58.078Z,91.00
2018-03-02T09:06:25.760Z,91.00
2018-03-02T09:08:54.891Z,91.00
2018-03-02T09:11:23.789Z,90.50
2018-03-02T09:13:52.198Z,90.00
2018-03-02T09:16:19.828Z,90.30
2018-03-02T09:18:47.515Z,90.30
2018-03-02T09:21:15.955Z,90.10
2018-03-02T09:23:43.627Z,90.00
2018-03-02T09:26:12.148Z,89.70
2018-03-02T09:28:40.539Z,88.80
2018-03-02T09:31:08.120Z,88.70
2018-03-02T09:33:35.773Z,87.40
2018-03-02T09:36:04.318Z,88.40
2018-03-02T09:38:31.937Z,88.20
2018-03-02T09:40:59.676Z,87.60
2018-03-02T09:43:28.088Z,85.90
2018-03-02T09:45:55.702Z,86.40
2018-03-02T09:48:23.372Z,84.40
2018-03-02T09:50:50.989Z,85.10
2018-03-02T09:53:18.670Z,86.70
2018-03-02T09:55:46.326Z,84.10
2018-03-02T09:58:13.991Z,83.00
2018-03-02T10:00:41.629Z,82.60
2018-03-02T10:03:10.031Z,82.40
2018-03-02T10:05:37.720Z,82.30
2018-03-02T10:08:05.380Z,80.50
2018-03-02T10:10:33.041Z,81.20
2018-03-02T10:13:00.716Z,79.90
2018-03-02T10:15:29.098Z,77.00
2018-03-02T10:17:56.726Z,77.10
2018-03-02T10:20:24.393Z,80.00
2018-03-02T10:22:53.739Z,77.30
2018-03-02T10:25:21.388Z,77.20
2018-03-02T10:27:49.018Z,77.60
2018-03-02T10:30:16.726Z,75.60
2018-03-02T10:32:44.377Z,76.50
2018-03-02T10:35:12.808Z,73.60
2018-03-02T10:37:40.472Z,73.60
2018-03-02T10:40:08.431Z,76.00
2018-03-02T10:42:36.094Z,77.00
2018-03-02T10:45:04.358Z,74.50
2018-03-02T10:47:33.465Z,73.40
2018-03-02T10:50:01.880Z,74.20
2018-03-02T10:52:29.546Z,73.20
2018-03-02T10:54:57.215Z,73.90
2018-03-02T10:57:24.866Z,73.00
2018-03-02T10:59:52.521Z,73.10
2018-03-02T11:02:20.783Z,69.80
2018-03-02T11:04:48.407Z,69.60
2018-03-02T11:07:16.063Z,69.60
2018-03-02T11:09:43.784Z,66.50
2018-03-02T11:12:12.235Z,67.50
2018-03-02T11:14:40.703Z,66.20
2018-03-02T11:17:08.356Z,67.00
2018-03-02T11:19:36.013Z,68.00
2018-03-02T11:22:04.015Z,66.20
2018-03-02T11:24:31.651Z,65.50
2018-03-02T11:26:59.274Z,67.00
2018-03-02T11:29:26.956Z,67.80
2018-03-02T11:31:55.357Z,64.20
2018-03-02T11:34:23.047Z,62.90
2018-03-02T11:36:50.699Z,65.40
2018-03-02T11:39:18.335Z,63.50
2018-03-02T11:41:46.006Z,65.10
2018-03-02T11:44:14.963Z,63.50
2018-03-02T11:46:42.606Z,63.70
2018-03-02T11:49:10.270Z,62.60
2018-03-02T11:51:37.958Z,60.70
2018-03-02T11:54:05.655Z,57.90
2018-03-02T11:56:33.262Z,63.50
2018-03-02T11:59:00.940Z,60.40
2018-03-02T12:01:28.569Z,58.80
2018-03-02T12:03:57.005Z,58.60
2018-03-02T12:06:24.645Z,58.30
2018-03-02T12:08:52.283Z,59.20
2018-03-02T12:11:20.055Z,59.90
2018-03-02T12:13:48.467Z,61.70
2018-03-02T12:16:16.137Z,62.20
2018-03-02T12:18:43.811Z,56.10
2018-03-02T12:21:11.446Z,53.40
2018-03-02T12:23:39.130Z,57.60
2018-03-02T12:26:07.408Z,55.00
2018-03-02T12:28:35.109Z,59.60
2018-03-02T12:31:02.838Z,57.30
2018-03-02T12:33:31.221Z,56.40
2018-03-02T12:35:59.671Z,60.00
2018-03-02T12:38:27.882Z,59.90
2018-03-02T12:40:55.553Z,59.30
2018-03-02T12:43:23.209Z,59.50
2018-03-02T12:45:51.634Z,62.60
2018-03-02T12:48:19.355Z,62.70
2018-03-02T12:50:48.242Z,61.60
2018-03-02T12:53:16.661Z,62.30
2018-03-02T12:55:44.365Z,60.70
2018-03-02T12:58:12.026Z,62.00
2018-03-02T13:00:39.723Z,62.70
2018-03-02T13:03:07.361Z,64.60
2018-03-02T13:05:35.049Z,64.60
2018-03-02T13:08:02.723Z,62.80
2018-03-02T13:10:30.380Z,63.80
2018-03-02T13:12:58.514Z,66.40
2018-03-02T13:15:26.171Z,65.70
2018-03-02T13:17:54.551Z,68.90
2018-03-02T13:20:22.189Z,68.90
2018-03-02T13:22:49.858Z,68.60
2018-03-02T13:25:17.513Z,68.00
2018-03-02T13:27:56.962Z,66.50
2018-03-02T13:30:24.593Z,65.40
2018-03-02T13:33:04.112Z,68.10
2018-03-02T13:35:31.748Z,67.90
2018-03-02T13:38:00.176Z,67.00
2018-03-02T13:40:54.705Z,66.70
2018-03-02T13:43:23.111Z,69.60
2018-03-02T13:45:50.761Z,69.30
2018-03-02T13:48:40.023Z,69.60
2018-03-02T13:51:08.400Z,67.00
2018-03-02T13:53:36.044Z,67.10
2018-03-02T13:56:03.694Z,69.40
2018-03-02T13:58:31.311Z,67.70
2018-03-02T14:00:59.707Z,69.30
2018-03-02T14:03:39.273Z,69.30
2018-03-02T14:06:06.911Z,70.00
2018-03-02T14:08:34.532Z,69.90
2018-03-02T14:11:02.184Z,69.70
2018-03-02T14:13:29.818Z,69.60
2018-03-02T14:15:58.910Z,70.30
2018-03-02T14:18:26.572Z,69.60
2018-03-02T14:20:54.239Z,69.10
2018-03-02T14:23:22.715Z,69.80
2018-03-02T14:25:51.290Z,69.00
2018-03-02T14:28:19.733Z,68.90
2018-03-02T14:30:47.371Z,69.00
2018-03-02T14:33:15.035Z,69.50
2018-03-02T14:35:43.491Z,70.30
2018-03-02T14:38:11.879Z,70.70
2018-03-02T14:40:39.555Z,70.50
2018-03-02T14:43:08.119Z,68.70
2018-03-02T14:45:36.514Z,69.00
2018-03-02T14:48:04.279Z,69.00
2018-03-02T14:50:31.946Z,68.20
2018-03-02T14:52:59.959Z,69.30
2018-03-02T14:55:27.637Z,68.70
2018-03-02T14:57:55.294Z,70.10
2018-03-02T15:00:23.314Z,70.90
2018-03-02T15:02:51.954Z,69.40
2018-03-02T15:05:19.629Z,69.40
2018-03-02T15:07:47.638Z,70.20
2018-03-02T15:10:15.321Z,69.70
2018-03-02T15:12:44.183Z,69.20
2018-03-02T15:15:11.912Z,69.20
2018-03-02T15:17:39.602Z,70.00
2018-03-02T15:20:07.270Z,69.80
2018-03-02T15:22:34.884Z,70.10
2018-03-02T15:25:03.412Z,70.50
2018-03-02T15:27:31.087Z,70.60
2018-03-02T15:29:58.848Z,69.90
2018-03-02T15:32:26.503Z,69.40
2018-03-02T15:34:54.152Z,69.90
2018-03-02T15:37:21.834Z,70.10
2018-03-02T15:39:49.427Z,70.90
2018-03-02T15:42:17.108Z,70.70
2018-03-02T15:44:44.770Z,71.00
2018-03-02T15:47:12.408Z,70.40
2018-03-02T15:49:40.078Z,71.30
2018-03-02T15:52:07.740Z,71.80
2018-03-02T15:54:35.363Z,72.00
2018-03-02T15:57:03.901Z,71.80
2018-03-02T15:59:32.892Z,72.10
2018-03-02T16:02:01.012Z,72.90
2018-03-02T16:04:29.554Z,72.50
2018-03-02T16:06:57.206Z,73.40
2018-03-02T16:09:24.817Z,73.80
2018-03-02T16:11:52.564Z,73.40
2018-03-02T16:14:20.184Z,73.70
2018-03-02T16:16:48.599Z,75.40
2018-03-02T16:19:16.362Z,75.30
2018-03-02T16:21:44.661Z,76.10
2018-03-02T16:24:12.339Z,76.00
2018-03-02T16:26:40.015Z,76.20
2018-03-02T16:29:07.641Z,76.50
2018-03-02T16:31:36.003Z,77.30
2018-03-02T16:34:04.442Z,77.50
2018-03-02T16:36:32.309Z,78.20
2018-03-02T16:38:59.971Z,77.20
2018-03-02T16:41:28.851Z,77.30
2018-03-02T16:43:56.482Z,78.40
2018-03-02T16:46:24.148Z,78.10
2018-03-02T16:48:51.868Z,78.20
2018-03-02T16:51:19.808Z,78.50
2018-03-02T16:53:47.464Z,78.50
2018-03-02T16:56:16.217Z,79.40
2018-03-02T16:58:43.946Z,79.30
2018-03-02T17:01:11.727Z,79.60
2018-03-02T17:03:39.394Z,79.90
2018-03-02T17:06:06.996Z,80.30
2018-03-02T17:08:34.696Z,80.00
2018-03-02T17:11:03.762Z,80.00
2018-03-02T17:13:31.566Z,79.90
2018-03-02T17:16:00.914Z,81.30
2018-03-02T17:18:28.564Z,81.30
2018-03-02T17:20:56.285Z,81.20
2018-03-02T17:23:26.359Z,81.40
2018-03-02T17:25:54.505Z,81.60
2018-03-02T17:28:23.384Z,81.00
2018-03-02T17:30:51.794Z,82.60
2018-03-02T17:33:20.365Z,81.90
2018-03-02T17:35:48.066Z,82.20
2018-03-02T17:38:15.709Z,81.80
2018-03-02T17:40:44.423Z,81.80
2018-03-02T17:43:13.066Z,81.70
2018-03-02T17:45:40.726Z,82.10
2018-03-02T17:48:08.405Z,82.30
2018-03-02T17:50:36.821Z,82.60
2018-03-02T17:53:04.502Z,82.60
2018-03-02T17:55:32.167Z,83.30
2018-03-02T17:57:59.851Z,83.50
2018-03-02T18:00:27.970Z,83.30
2018-03-02T18:02:55.599Z,83.90
2018-03-02T18:05:23.335Z,84.10
2018-03-02T18:07:50.943Z,84.10
2018-03-02T18:10:18.922Z,84.40
2018-03-02T18:12:46.611Z,84.90
2018-03-02T18:15:16.134Z,84.90
2018-03-02T18:17:44.575Z,85.80
2018-03-02T18:20:12.202Z,85.80
2018-03-02T18:22:39.898Z,85.70
2018-03-02T18:25:07.567Z,85.90
2018-03-02T18:27:35.527Z,86.10
2018-03-02T18:30:03.176Z,86.00
2018-03-02T18:32:31.677Z,86.70
2018-03-02T18:34:59.339Z,87.20
2018-03-02T18:37:27.874Z,87.60
2018-03-02T18:39:55.486Z,87.90
2018-03-02T18:42:23.161Z,87.70
2018-03-02T18:44:50.797Z,88.20
2018-03-02T18:47:19.233Z,88.50
2018-03-02T18:49:47.188Z,88.50
2018-03-02T18:52:14.818Z,88.00
2018-03-02T18:54:43.329Z,88.00
2018-03-02T18:57:10.989Z,88.30
2018-03-02T18:59:38.626Z,88.30
2018-03-02T19:02:06.328Z,88.40
2018-03-02T19:04:34.298Z,89.20
2018-03-02T19:07:02.720Z,88.80
2018-03-02T19:09:30.705Z,88.60
2018-03-02T19:11:58.385Z,89.00
2018-03-02T19:14:26.875Z,88.60
2018-03-02T19:16:54.506Z,89.00
2018-03-02T19:19:22.126Z,89.10
2018-03-02T19:21:50.558Z,90.20
2018-03-02T19:24:18.183Z,89.80
2018-03-02T19:26:46.614Z,89.70
2018-03-02T19:29:14.254Z,89.60
2018-03-02T19:31:41.905Z,89.80
2018-03-02T19:34:10.285Z,89.60
2018-03-02T19:36:38.751Z,89.90
2018-03-02T19:39:06.428Z,89.90
2018-03-02T19:41:34.114Z,90.10
2018-03-02T19:44:02.555Z,90.40
2018-03-02T19:46:30.198Z,90.40
2018-03-02T19:48:59.287Z,90.20
2018-03-02T19:51:26.990Z,90.10
2018-03-02T19:53:54.629Z,90.20
2018-03-02T19:56:22.298Z,90.10
2018-03-02T19:58:49.929Z,90.30
2018-03-02T20:01:17.574Z,90.40
2018-03-02T20:03:45.198Z,90.30
2018-03-02T20:06:13.723Z,90.40
2018-03-02T20:08:41.375Z,90.50
2018-03-02T20:11:09.062Z,90.00
2018-03-02T20:13:36.725Z,90.20
2018-03-02T20:16:04.384Z,90.20
2018-03-02T20:18:32.016Z,90.60
2018-03-02T20:20:59.690Z,90.50
2018-03-02T20:23:27.329Z,90.50
2018-03-02T20:25:56.049Z,91.00
2018-03-02T20:28:23.740Z,91.00
2018-03-02T20:30:51.361Z,91.10
2018-03-02T20:33:20.073Z,91.00
2018-03-02T20:35:47.698Z,91.00
2018-03-02T20:38:15.363Z,91.10
2018-03-02T20:40:43.057Z,90.70
2018-03-02T20:43:10.686Z,91.00
2018-03-02T20:45:38.309Z,91.20
2018-03-02T20:48:05.973Z,91.20
2018-03-02T20:50:33.617Z,91.30
2018-03-02T20:53:02.368Z,91.80
2018-03-02T20:55:29.991Z,91.70
2018-03-02T20:57:57.607Z,91.40
2018-03-02T21:00:25.310Z,91.90
2018-03-02T21:02:53.681Z,92.00
2018-03-02T21:05:21.293Z,92.00
2018-03-02T21:07:49.011Z,91.90
2018-03-02T21:10:16.616Z,92.20
2018-03-02T21:12:44.263Z,92.10
2018-03-02T21:15:12.637Z,92.30
2018-03-02T21:17:40.226Z,92.20
2018-03-02T21:20:07.860Z,92.70
2018-03-02T21:22:35.465Z,92.50
2018-03-02T21:25:03.795Z,92.70
2018-03-02T21:27:32.122Z,92.80
2018-03-02T21:29:59.761Z,92.90
2018-03-02T21:32:28.138Z,93.40
2018-03-02T21:34:56.560Z,93.70
2018-03-02T21:37:24.153Z,93.70
2018-03-02T21:39:51.783Z,93.60
2018-03-02T21:42:20.190Z,94.00
2018-03-02T21:44:47.833Z,94.00
2018-03-02T21:47:15.529Z,94.30
2018-03-02T21:49:43.158Z,94.30
2018-03-02T21:52:11.558Z,94.50
2018-03-02T21:54:39.676Z,94.50
2018-03-02T21:57:07.329Z,94.80
2018-03-02T21:59:34.951Z,94.60
2018-03-02T22:02:03.370Z,95.10
2018-03-02T22:04:31.011Z,95.10
2018-03-02T22:06:58.618Z,94.90
2018-03-02T22:09:26.252Z,95.10
2018-03-02T22:11:53.865Z,95.30
2018-03-02T22:14:21.499Z,95.30
2018-03-02T22:16:49.114Z,95.30
2018-03-02T22:19:16.747Z,95.40
2018-03-02T22:21:44.773Z,95.30
2018-03-02T22:24:13.125Z,95.70
2018-03-02T22:26:40.736Z,95.70
2018-03-02T22:29:08.395Z,95.60
2018-03-02T22:31:36.793Z,95.80
2018-03-02T22:34:04.426Z,95.80
2018-03-02T22:36:32.431Z,95.60
2018-03-02T22:39:00.029Z,95.90
2018-03-02T22:41:27.650Z,95.90
2018-03-02T22:43:56.038Z,96.20
2018-03-02T22:46:24.791Z,96.40
2018-03-02T22:48:52.410Z,96.40
2018-03-02T22:51:20.071Z,96.30
2018-03-02T22:53:47.675Z,96.20
2018-03-02T22:56:15.608Z,96.30
2018-03-02T22:58:43.235Z,96.70
2018-03-02T23:01:10.846Z,96.60
2018-03-02T23:03:38.478Z,96.60
2018-03-02T23:06:06.862Z,97.20
2018-03-02T23:08:34.494Z,97.00
2018-03-02T23:11:02.080Z,97.00
2018-03-02T23:13:29.692Z,97.00
2018-03-02T23:15:57.309Z,97.10
2018-03-02T23:18:24.959Z,97.10
2018-03-02T23:20:52.589Z,97.10
2018-03-02T23:23:20.253Z,97.20
2018-03-02T23:25:47.945Z,97.30
2018-03-02T23:28:15.553Z,97.20
2018-03-02T23:30:43.957Z,97.60
2018-03-02T23:33:12.332Z,97.40
2018-03-02T23:35:40.726Z,97.60
2018-03-02T23:38:09.105Z,97.50
2018-03-02T23:40:37.524Z,97.60
2018-03-02T23:43:05.135Z,97.60
2018-03-02T23:45:32.775Z,97.80
2018-03-02T23:48:00.376Z,97.80
2018-03-02T23:50:28.014Z,97.80
2018-03-02T23:52:55.671Z,97.70
2018-03-02T23:55:23.312Z,97.90
2018-03-02T23:57:50.945Z,98.00
